Time;durP1;ratioP1;P1;durP2;ratioP2;P2;SDS_P1;SDS_P2;PMS_P1;PMS_P2;Temp;Humidity;BMP_temperature;BMP_pressure;BME280_temperature;BME280_humidity;BME280_pressure;Samples;Min_cycle;Max_cycle;Signal;HPM_P1;HPM_P2
2022/09/01 00:01:53;;;;;;;4.07;2.50;;;14.60;99.90;;;;;;2603412;54;20042;31
2022/09/01 00:04:27;;;;;;;4.90;2.20;;;14.60;99.90;;;;;;2603395;54;20034;31
2022/09/01 00:07:04;;;;;;;5.05;2.55;;;14.60;99.90;;;;;;2603281;54;20345;31
2022/09/01 00:09:38;;;;;;;4.47;2.15;;;14.60;99.90;;;;;;2603359;54;25068;31
2022/09/01 00:12:12;;;;;;;4.10;2.10;;;14.60;99.90;;;;;;2621697;46;20933;31
2022/09/01 00:14:46;;;;;;;7.07;2.97;;;14.60;99.90;;;;;;2603458;54;20089;31
2022/09/01 00:17:20;;;;;;;4.75;2.20;;;14.60;99.90;;;;;;2603279;54;20022;31
2022/09/01 00:19:54;;;;;;;6.70;2.45;;;14.60;99.90;;;;;;2620869;46;20163;31
2022/09/01 00:22:32;;;;;;;6.90;2.70;;;14.70;99.90;;;;;;2602658;54;20080;31
2022/09/01 00:25:07;;;;;;;4.68;2.85;;;14.60;99.90;;;;;;2621957;46;20030;31
2022/09/01 00:27:41;;;;;;;4.83;2.33;;;14.60;99.90;;;;;;2621605;46;20894;31
2022/09/01 00:30:15;;;;;;;4.70;2.65;;;14.60;99.90;;;;;;2603308;54;20093;31
2022/09/01 00:32:49;;;;;;;6.00;2.42;;;14.60;99.90;;;;;;2621581;46;20859;31
2022/09/01 00:35:23;;;;;;;3.03;1.85;;;14.60;99.90;;;;;;2603360;54;20022;31
2022/09/01 00:38:00;;;;;;;2.97;1.92;;;14.60;99.90;;;;;;2621937;47;20842;31
2022/09/01 00:40:34;;;;;;;5.43;1.95;;;14.60;99.90;;;;;;2621760;46;20023;31
2022/09/01 00:43:15;;;;;;;5.65;2.00;;;14.60;99.90;;;;;;2603232;54;20027;31
2022/09/01 00:45:50;;;;;;;8.23;2.67;;;14.70;99.90;;;;;;2603224;54;20042;31
2022/09/01 00:48:24;;;;;;;3.50;1.97;;;14.70;99.90;;;;;;2622257;46;20022;31
2022/09/01 00:50:58;;;;;;;5.00;1.80;;;14.60;99.90;;;;;;2603171;54;20030;31
2022/09/01 00:53:35;;;;;;;5.93;2.00;;;14.70;99.90;;;;;;2702193;39;20968;31
2022/09/01 00:56:09;;;;;;;5.72;2.05;;;14.60;99.90;;;;;;2603370;54;20037;31
2022/09/01 00:58:43;;;;;;;4.10;1.70;;;14.70;99.90;;;;;;2603234;54;20976;31
2022/09/01 01:01:17;;;;;;;6.93;2.50;;;14.70;99.90;;;;;;2603529;54;20031;31
2022/09/01 01:03:51;;;;;;;12.43;2.20;;;14.70;99.90;;;;;;2603170;54;20092;31
2022/09/01 01:06:28;;;;;;;2.90;1.50;;;14.70;99.90;;;;;;2603418;54;20088;31
2022/09/01 01:09:07;;;;;;;3.90;1.60;;;14.80;99.90;;;;;;2603347;54;20030;31
2022/09/01 01:11:43;;;;;;;4.47;1.80;;;14.80;99.90;;;;;;2603499;54;20030;31
2022/09/01 01:14:18;;;;;;;5.95;1.90;;;14.80;99.90;;;;;;2621915;46;20167;31
2022/09/01 01:16:53;;;;;;;2.88;1.45;;;14.90;99.90;;;;;;2603092;54;20160;31
2022/09/01 01:25:17;;;;;;;4.88;1.95;;;14.90;99.90;;;;;;2603113;54;20038;31
2022/09/01 01:27:51;;;;;;;3.45;1.70;;;14.90;99.90;;;;;;2603122;54;20060;31
2022/09/01 01:30:27;;;;;;;5.43;2.10;;;14.90;99.90;;;;;;2603279;54;20021;31
2022/09/01 01:33:01;;;;;;;3.17;1.98;;;14.90;99.90;;;;;;2621905;46;19942;31
2022/09/01 01:35:36;;;;;;;5.50;2.27;;;14.90;99.90;;;;;;2603078;54;20969;31
2022/09/01 01:38:10;;;;;;;3.87;1.83;;;14.90;99.90;;;;;;2621910;46;20751;31
2022/09/01 01:40:47;;;;;;;4.72;1.77;;;14.90;99.90;;;;;;2622011;47;21195;31
2022/09/01 01:43:21;;;;;;;5.15;1.88;;;14.90;99.90;;;;;;2603045;54;20030;31
2022/09/01 01:46:01;;;;;;;2.80;1.70;;;14.90;99.90;;;;;;2602998;54;20046;31
2022/09/01 01:48:41;;;;;;;3.05;1.55;;;14.90;99.90;;;;;;2622019;47;20044;31
2022/09/01 01:51:15;;;;;;;2.70;1.40;;;14.90;99.90;;;;;;2603638;54;20732;31
2022/09/01 01:53:51;;;;;;;4.43;1.20;;;14.90;99.90;;;;;;2622786;46;20031;31
2022/09/01 01:56:28;;;;;;;3.15;1.52;;;15.00;99.90;;;;;;2622485;46;20022;31
2022/09/01 01:59:02;;;;;;;3.60;1.92;;;15.00;99.90;;;;;;2603784;54;20530;31
2022/09/01 02:01:41;;;;;;;3.75;1.63;;;15.00;99.90;;;;;;2603713;54;20030;31
2022/09/01 02:04:15;;;;;;;3.08;1.40;;;15.00;99.90;;;;;;2603818;54;20862;31
2022/09/01 02:06:50;;;;;;;3.08;1.42;;;15.00;99.90;;;;;;2603806;54;20100;31
2022/09/01 02:09:24;;;;;;;2.85;1.35;;;14.90;99.90;;;;;;2603947;54;20031;31
2022/09/01 02:12:02;;;;;;;3.30;1.50;;;15.00;99.90;;;;;;2603807;54;20022;31
2022/09/01 02:14:40;;;;;;;2.87;1.27;;;15.00;99.90;;;;;;2603870;54;20866;31
2022/09/01 02:17:14;;;;;;;5.80;2.03;;;15.00;99.90;;;;;;2622318;46;20113;31
2022/09/01 02:19:48;;;;;;;3.90;1.42;;;15.10;99.90;;;;;;2603744;54;20031;31
2022/09/01 02:22:22;;;;;;;3.83;1.65;;;15.10;99.90;;;;;;2603620;54;20026;31
2022/09/01 02:24:56;;;;;;;3.45;1.50;;;15.00;99.90;;;;;;2603618;54;20023;31
2022/09/01 02:27:38;;;;;;;3.40;1.58;;;15.10;99.90;;;;;;2702255;39;20517;31
2022/09/01 02:30:13;;;;;;;3.83;1.50;;;15.00;99.90;;;;;;2603597;54;20030;31
2022/09/01 02:32:48;;;;;;;4.60;1.50;;;15.00;99.90;;;;;;2622452;46;20116;31
2022/09/01 02:35:22;;;;;;;3.28;1.80;;;15.00;99.90;;;;;;2603675;54;20647;31
2022/09/01 02:37:59;;;;;;;3.17;1.67;;;14.90;99.90;;;;;;2603555;54;20959;31
2022/09/01 02:40:33;;;;;;;2.40;1.42;;;14.90;99.90;;;;;;2622205;46;20030;31
2022/09/01 02:43:12;;;;;;;7.00;2.10;;;15.00;99.90;;;;;;2622449;46;20124;31
2022/09/01 02:45:46;;;;;;;5.43;1.98;;;15.00;99.90;;;;;;2622073;46;20596;31
2022/09/01 02:48:22;;;;;;;6.25;2.30;;;15.00;99.90;;;;;;2720326;39;20576;31
2022/09/01 02:50:58;;;;;;;3.80;1.90;;;14.90;99.90;;;;;;2603596;54;20059;31
2022/09/01 02:53:33;;;;;;;4.00;2.60;;;14.90;99.90;;;;;;2603798;54;20129;31
2022/09/01 02:56:13;;;;;;;4.97;2.17;;;14.90;99.90;;;;;;2603646;54;20127;31
2022/09/01 02:58:50;;;;;;;3.47;1.70;;;14.90;99.90;;;;;;2622409;46;20702;31
2022/09/01 03:01:26;;;;;;;6.97;2.20;;;14.90;99.90;;;;;;2603844;54;20755;31
2022/09/01 03:04:01;;;;;;;4.27;1.83;;;14.90;99.90;;;;;;2603556;54;20913;31
2022/09/01 03:06:36;;;;;;;6.85;1.98;;;14.90;99.90;;;;;;2622270;46;20285;31
2022/09/01 03:09:13;;;;;;;5.57;2.33;;;14.90;99.90;;;;;;2603483;54;20890;31
2022/09/01 03:11:49;;;;;;;5.10;2.53;;;14.90;99.90;;;;;;2603732;54;20664;31
2022/09/01 03:14:25;;;;;;;;;;;14.90;99.90;;;;;;2603914;54;20250;31
2022/09/01 03:16:59;;;;;;;4.05;2.10;;;14.90;99.90;;;;;;2622203;46;19958;31
2022/09/01 03:19:44;;;;;;;6.00;3.00;;;14.90;99.90;;;;;;2603624;54;20027;31
2022/09/01 03:22:17;;;;;;;6.07;2.08;;;14.90;99.90;;;;;;2603617;54;20038;31
2022/09/01 03:24:51;;;;;;;4.25;2.28;;;14.90;99.90;;;;;;2621754;46;20931;31
2022/09/01 03:27:25;;;;;;;7.90;2.80;;;14.90;99.90;;;;;;2603590;54;20026;31
2022/09/01 03:30:02;;;;;;;3.13;2.20;;;14.90;99.90;;;;;;2603504;54;20803;31
2022/09/01 03:32:36;;;;;;;4.00;2.17;;;14.90;99.90;;;;;;2603576;54;21100;31
2022/09/01 03:35:11;;;;;;;6.40;2.50;;;14.90;99.90;;;;;;2621787;46;20034;31
2022/09/01 03:37:46;;;;;;;11.35;6.70;;;14.90;99.90;;;;;;2603509;54;20907;31
2022/09/01 03:40:21;;;;;;;13.50;7.38;;;14.90;99.90;;;;;;2603474;54;20031;31
2022/09/01 03:42:54;;;;;;;8.20;4.33;;;14.90;99.90;;;;;;2603756;54;20034;31
2022/09/01 03:45:34;;;;;;;8.52;2.97;;;14.90;99.90;;;;;;2603713;54;20104;31
2022/09/01 03:48:09;;;;;;;7.95;3.10;;;14.90;99.90;;;;;;2603599;54;20046;31
2022/09/01 03:50:45;;;;;;;6.63;3.15;;;14.90;99.90;;;;;;2702016;39;20516;31
2022/09/01 03:53:21;;;;;;;3.55;2.10;;;14.90;99.90;;;;;;2603449;54;20572;31
2022/09/01 03:55:58;;;;;;;4.38;2.60;;;15.00;99.90;;;;;;2603601;54;20836;31
2022/09/01 03:58:32;;;;;;;;;;;14.90;99.90;;;;;;2603906;54;20033;31
2022/09/01 04:01:11;;;;;;;4.45;2.42;;;14.90;99.90;;;;;;2603592;54;19934;31
2022/09/01 04:03:47;;;;;;;4.90;2.30;;;14.90;99.90;;;;;;2720896;39;20927;31
2022/09/01 04:06:24;;;;;;;4.60;2.42;;;14.90;99.90;;;;;;2603406;54;20093;31
2022/09/01 04:09:01;;;;;;;4.65;2.92;;;14.90;99.90;;;;;;2603289;54;20033;31
2022/09/01 04:11:39;;;;;;;6.77;2.90;;;14.80;99.90;;;;;;2603174;54;20030;31
2022/09/01 04:14:19;;;;;;;7.22;2.90;;;14.80;99.90;;;;;;2621644;46;20211;31
2022/09/01 04:19:44;;;;;;;6.68;2.17;;;14.80;99.90;;;;;;2603514;54;20810;31
2022/09/01 04:22:19;;;;;;;5.45;2.38;;;14.90;99.90;;;;;;2622083;46;20116;31
2022/09/01 04:24:55;;;;;;;4.20;2.27;;;14.90;99.90;;;;;;2603269;54;20871;31
2022/09/01 04:27:28;;;;;;;3.70;2.20;;;14.90;99.90;;;;;;2603475;54;20030;31
2022/09/01 04:30:03;;;;;;;5.03;2.42;;;14.90;99.90;;;;;;2720030;39;20473;31
2022/09/01 04:32:45;;;;;;;8.35;3.00;;;14.90;99.90;;;;;;2603491;54;20906;31
2022/09/01 04:35:26;;;;;;;3.67;1.35;;;14.90;99.90;;;;;;2621887;46;20900;31
2022/09/01 04:38:01;;;;;;;4.40;2.30;;;14.90;99.90;;;;;;2621666;46;20027;31
2022/09/01 04:40:39;;;;;;;3.40;2.30;;;14.90;99.90;;;;;;2603262;54;20104;31
2022/09/01 04:43:15;;;;;;;5.70;2.47;;;14.90;99.90;;;;;;2603141;54;25088;31
2022/09/01 04:45:53;;;;;;;8.70;2.60;;;15.00;99.90;;;;;;2603446;54;20570;31
2022/09/01 04:48:27;;;;;;;7.10;2.70;;;14.90;99.90;;;;;;2603266;54;25021;31
2022/09/01 04:51:09;;;;;;;6.65;2.80;;;15.00;99.90;;;;;;2603372;54;20052;31
2022/09/01 04:53:57;;;;;;;9.68;3.28;;;15.00;99.90;;;;;;2621908;46;20106;31
2022/09/01 04:56:34;;;;;;;6.27;2.07;;;15.00;99.90;;;;;;2603226;54;20573;31
2022/09/01 04:59:16;;;;;;;7.00;2.40;;;15.00;99.90;;;;;;2603325;54;20027;31
2022/09/01 05:01:58;;;;;;;4.20;2.35;;;15.00;99.90;;;;;;2603193;54;20917;31
2022/09/01 05:04:34;;;;;;;5.40;2.20;;;15.00;99.90;;;;;;2603361;54;20889;31
2022/09/01 05:07:13;;;;;;;9.30;2.47;;;15.00;99.90;;;;;;2603174;54;20050;31
2022/09/01 05:09:48;;;;;;;7.35;2.63;;;15.10;99.90;;;;;;2621771;46;20541;31
2022/09/01 05:12:40;;;;;;;7.67;2.50;;;15.10;99.90;;;;;;2603188;54;20022;31
2022/09/01 05:15:16;;;;;;;7.35;2.75;;;15.10;99.90;;;;;;2701686;39;20450;31
2022/09/01 05:17:55;;;;;;;6.03;2.63;;;15.20;99.90;;;;;;2603331;54;20030;31
2022/09/01 05:20:34;;;;;;;4.80;2.70;;;15.10;99.90;;;;;;2603282;54;20038;31
2022/09/01 05:23:18;;;;;;;5.43;2.80;;;15.30;99.90;;;;;;2602999;54;20797;31
2022/09/01 05:25:53;;;;;;;4.72;2.30;;;15.30;99.90;;;;;;2603035;54;20925;31
2022/09/01 05:28:30;;;;;;;17.55;3.60;;;15.40;99.90;;;;;;2603253;54;20897;31
2022/09/01 05:31:07;;;;;;;34.17;5.38;;;15.40;99.90;;;;;;2603039;54;20795;31
2022/09/01 05:33:44;;;;;;;31.65;4.80;;;15.50;99.90;;;;;;2603138;54;20582;31
2022/09/01 05:36:23;;;;;;;7.25;2.60;;;15.60;99.90;;;;;;2621830;46;20049;31
2022/09/01 05:39:03;;;;;;;9.00;2.40;;;15.60;99.90;;;;;;2603010;54;20853;31
2022/09/01 05:41:39;;;;;;;6.15;2.20;;;15.70;99.90;;;;;;2602397;54;20744;31
2022/09/01 05:44:17;;;;;;;4.57;1.83;;;15.80;99.90;;;;;;2603202;54;20027;31
2022/09/01 05:46:52;;;;;;;7.90;2.20;;;16.00;99.90;;;;;;2602847;54;20078;31
2022/09/01 05:49:27;;;;;;;6.50;2.50;;;16.10;99.90;;;;;;2701853;39;21035;31
2022/09/01 05:52:02;;;;;;;5.25;2.47;;;16.10;99.90;;;;;;2621643;47;20077;31
2022/09/01 05:54:44;;;;;;;7.50;2.08;;;16.20;99.90;;;;;;2603105;54;20027;31
2022/09/01 05:57:20;;;;;;;8.70;2.33;;;16.30;99.90;;;;;;2602948;54;20035;31
2022/09/01 06:00:12;;;;;;;3.28;1.58;;;16.50;99.90;;;;;;2603059;54;20565;31
2022/09/01 06:02:47;;;;;;;6.15;2.05;;;16.70;99.90;;;;;;2621576;47;20038;31
2022/09/01 06:05:28;;;;;;;5.00;1.95;;;16.80;99.90;;;;;;2603059;54;20632;31
2022/09/01 06:08:04;;;;;;;6.40;2.28;;;16.70;99.90;;;;;;2602907;54;20042;31
2022/09/01 06:10:44;;;;;;;4.40;2.25;;;16.90;99.90;;;;;;2603004;54;20840;31
2022/09/01 06:13:20;;;;;;;3.58;2.00;;;16.90;99.90;;;;;;2603191;54;20946;31
2022/09/01 06:16:00;;;;;;;5.40;2.10;;;16.90;99.90;;;;;;2603046;54;20038;31
2022/09/01 06:18:37;;;;;;;8.23;2.17;;;16.90;99.90;;;;;;2621173;47;20081;31
2022/09/01 06:21:13;;;;;;;;;;;16.90;99.90;;;;;;2621802;47;20054;31
2022/09/01 06:23:49;;;;;;;5.00;1.83;;;17.00;99.90;;;;;;2602709;54;19999;31
2022/09/01 06:26:27;;;;;;;4.15;1.55;;;17.20;99.90;;;;;;2603006;54;20128;31
2022/09/01 06:29:08;;;;;;;6.75;1.90;;;17.50;99.90;;;;;;2602777;54;20022;31
2022/09/01 06:31:51;;;;;;;4.40;1.80;;;17.70;99.90;;;;;;2701483;39;20443;31
2022/09/01 06:34:28;;;;;;;4.90;2.17;;;17.80;99.90;;;;;;2701761;39;20573;31
2022/09/01 06:37:03;;;;;;;4.63;2.17;;;18.00;99.90;;;;;;2603691;54;19934;31
2022/09/01 06:39:38;;;;;;;;;;;18.40;99.90;;;;;;2603953;54;20059;31
2022/09/01 06:42:18;;;;;;;4.28;2.15;;;18.80;99.90;;;;;;2603613;54;20032;31
2022/09/01 06:44:59;;;;;;;5.95;1.90;;;18.90;99.90;;;;;;2622399;46;20027;31
2022/09/01 06:47:34;;;;;;;5.80;1.90;;;18.90;99.90;;;;;;2621698;46;20891;31
2022/09/01 06:50:13;;;;;;;5.23;1.90;;;19.00;99.90;;;;;;2603489;54;20026;31
2022/09/01 06:53:12;;;;;;;3.63;1.57;;;19.20;99.90;;;;;;2603611;54;20027;31
2022/09/01 06:56:12;;;;;;;4.75;1.80;;;19.40;99.90;;;;;;2622363;46;20048;31
2022/09/01 06:58:50;;;;;;;3.40;1.55;;;19.80;99.90;;;;;;2603443;54;20848;31
2022/09/01 07:01:26;;;;;;;3.38;1.48;;;19.80;99.90;;;;;;2603782;54;19942;31
2022/09/01 07:04:02;;;;;;;4.75;1.50;;;19.80;99.90;;;;;;2603653;54;20034;31
2022/09/01 07:06:51;;;;;;;6.70;1.60;;;20.00;99.90;;;;;;2603479;54;20124;31
2022/09/01 07:10:04;;;;;;;5.90;1.70;;;20.40;99.90;;;;;;2603597;54;20033;31
2022/09/01 07:13:18;;;;;;;23.25;2.28;;;20.80;99.90;;;;;;2603643;54;20086;31
2022/09/01 07:15:57;;;;;;;5.85;1.50;;;20.80;99.90;;;;;;2622171;46;20027;31
2022/09/01 07:18:54;;;;;;;3.90;1.58;;;21.00;99.90;;;;;;2621942;46;20053;31
2022/09/01 07:21:33;;;;;;;2.97;1.35;;;21.30;99.90;;;;;;2603631;54;20027;31
2022/09/01 07:24:28;;;;;;;6.47;1.30;;;21.60;99.90;;;;;;2603524;54;20046;31
2022/09/01 07:27:26;;;;;;;3.50;0.93;;;22.00;99.90;;;;;;2603725;54;20034;31
2022/09/01 07:30:12;;;;;;;1.92;0.82;;;22.40;99.90;;;;;;2603646;54;20030;31
2022/09/01 07:32:51;;;;;;;5.00;0.70;;;22.80;99.90;;;;;;2622334;46;21350;31
2022/09/01 07:35:31;;;;;;;5.50;1.27;;;22.80;99.90;;;;;;2603433;54;20754;31
2022/09/01 07:38:08;;;;;;;1.75;0.75;;;23.10;99.90;;;;;;2603454;54;20056;31
2022/09/01 07:41:03;;;;;;;3.50;0.93;;;23.50;99.90;;;;;;2603465;54;20097;31
2022/09/01 07:44:13;;;;;;;2.47;1.00;;;23.40;99.90;;;;;;2622098;46;20285;31
2022/09/01 07:47:08;;;;;;;3.78;1.05;;;23.60;99.90;;;;;;2603421;54;20045;31
2022/09/01 07:50:07;;;;;;;3.20;0.70;;;24.00;99.90;;;;;;2603290;54;20909;31
2022/09/01 07:52:57;;;;;;;1.37;0.60;;;24.00;99.90;;;;;;2603525;54;20050;31
2022/09/01 07:55:31;;;;;;;1.48;0.65;;;24.00;99.90;;;;;;2603426;54;20783;31
2022/09/01 07:58:08;;;;;;;1.83;0.70;;;24.20;99.90;;;;;;2603342;54;20932;31
2022/09/01 08:00:45;;;;;;;2.40;0.82;;;24.10;99.90;;;;;;2603598;54;20042;31
2022/09/01 08:03:23;;;;;;;1.08;0.50;;;24.20;99.90;;;;;;2603395;54;20027;31
2022/09/01 08:06:05;;;;;;;1.73;0.95;;;24.40;99.90;;;;;;2603406;54;20033;31
2022/09/01 08:08:41;;;;;;;2.78;0.73;;;24.50;99.90;;;;;;2622284;46;20752;31
2022/09/01 08:11:18;;;;;;;2.30;0.47;;;24.70;99.90;;;;;;2603073;54;20100;31
2022/09/01 08:14:08;;;;;;;1.13;0.80;;;24.90;99.90;;;;;;2603592;54;20054;31
2022/09/01 08:16:44;;;;;;;3.20;0.55;;;25.10;99.90;;;;;;2603335;54;20384;31
2022/09/01 08:19:30;;;;;;;2.25;0.60;;;25.30;99.90;;;;;;2621923;46;20081;31
2022/09/01 08:22:22;;;;;;;2.65;0.63;;;25.40;99.90;;;;;;2621742;46;20033;31
2022/09/01 08:25:03;;;;;;;2.83;0.73;;;25.40;99.90;;;;;;2621680;46;20030;31
2022/09/01 08:27:41;;;;;;;1.98;0.60;;;25.60;99.90;;;;;;2603312;54;20754;31
2022/09/01 08:30:17;;;;;;;2.45;0.68;;;25.60;99.90;;;;;;2621683;46;20029;31
2022/09/01 08:32:52;;;;;;;1.50;0.50;;;25.70;99.90;;;;;;2701758;39;20462;31
2022/09/01 08:35:28;;;;;;;1.95;0.50;;;25.80;99.90;;;;;;2603326;54;20109;31
2022/09/01 08:38:07;;;;;;;1.65;0.40;;;26.00;99.90;;;;;;2603399;54;20112;31
2022/09/01 08:40:42;;;;;;;3.03;0.88;;;26.20;99.90;;;;;;2603199;54;20862;31
2022/09/01 08:43:21;;;;;;;7.85;0.77;;;26.40;99.90;;;;;;2621805;46;20094;31
2022/09/01 08:45:58;;;;;;;1.70;0.80;;;26.50;99.90;;;;;;2603377;54;20893;31
2022/09/01 08:48:36;;;;;;;2.35;0.50;;;26.40;99.90;;;;;;2603304;54;20027;31
2022/09/01 08:51:31;;;;;;;0.80;0.40;;;26.50;99.90;;;;;;2603236;54;20207;31
2022/09/01 08:54:20;;;;;;;;;;;26.10;99.90;;;;;;2622158;46;20034;31
2022/09/01 08:57:07;;;;;;;1.80;0.60;;;26.00;99.90;;;;;;2603123;54;20754;31
2022/09/01 09:00:01;;;;;;;2.45;0.40;;;26.00;99.90;;;;;;2603359;54;20306;31
2022/09/01 09:02:45;;;;;;;1.23;0.50;;;25.80;99.60;;;;;;2603007;54;20860;31
2022/09/01 09:05:33;;;;;;;2.07;0.60;;;25.50;99.90;;;;;;2603281;54;20089;31
2022/09/01 09:08:17;;;;;;;6.70;0.50;;;25.20;99.90;;;;;;2603237;54;20085;31
2022/09/01 09:10:57;;;;;;;3.58;0.60;;;24.70;99.90;;;;;;2603325;54;20792;31
2022/09/01 09:13:38;;;;;;;3.80;0.60;;;24.30;99.90;;;;;;2603267;54;20050;31
2022/09/01 09:16:13;;;;;;;2.42;0.47;;;24.10;99.90;;;;;;2603186;54;20771;31
2022/09/01 09:18:49;;;;;;;;;;;24.30;99.90;;;;;;2621532;46;20053;31
2022/09/01 09:21:30;;;;;;;1.77;0.52;;;24.10;99.90;;;;;;2603207;54;19942;31
2022/09/01 09:24:10;;;;;;;1.52;0.50;;;23.90;99.90;;;;;;2603131;54;20851;31
2022/09/01 09:26:49;;;;;;;2.80;0.70;;;23.60;99.90;;;;;;2603397;54;20880;31
2022/09/01 09:29:26;;;;;;;2.47;0.55;;;23.50;99.90;;;;;;2603016;54;20030;31
2022/09/01 09:32:09;;;;;;;2.88;0.68;;;23.20;99.90;;;;;;2603012;54;20053;31
2022/09/01 09:35:07;;;;;;;5.30;0.80;;;23.00;99.90;;;;;;2603280;54;20026;31
2022/09/01 09:37:43;;;;;;;6.43;0.75;;;22.90;99.90;;;;;;2603000;54;20904;31
2022/09/01 09:40:22;;;;;;;2.95;0.88;;;22.80;99.90;;;;;;2603158;54;20851;31
2022/09/01 09:43:06;;;;;;;8.25;1.30;;;22.50;99.90;;;;;;2603240;54;20034;31
2022/09/01 09:45:42;;;;;;;9.40;1.05;;;22.70;99.90;;;;;;2621819;47;20100;31
2022/09/01 09:48:29;;;;;;;1.27;0.55;;;23.00;99.90;;;;;;2603137;54;20900;31
2022/09/01 09:51:17;;;;;;;1.17;0.50;;;23.50;99.90;;;;;;2603122;54;20729;31
2022/09/01 09:53:54;;;;;;;1.73;0.75;;;23.70;99.90;;;;;;2621608;47;20920;31
2022/09/01 09:56:29;;;;;;;1.60;0.77;;;23.50;99.90;;;;;;2603056;54;20037;31
2022/09/01 09:59:18;;;;;;;1.85;0.50;;;23.30;99.90;;;;;;2603062;54;20033;31
2022/09/01 10:02:19;;;;;;;1.07;0.30;;;23.10;99.90;;;;;;2621477;47;20038;31
2022/09/01 10:04:59;;;;;;;2.35;0.30;;;22.90;99.90;;;;;;2602902;54;20031;31
2022/09/01 10:07:38;;;;;;;1.55;0.40;;;23.00;99.90;;;;;;2602886;54;20113;31
2022/09/01 10:10:29;;;;;;;8.35;1.10;;;22.90;99.90;;;;;;2621729;46;20034;31
2022/09/01 10:13:08;;;;;;;7.28;1.05;;;22.90;99.90;;;;;;2702155;39;21364;31
2022/09/01 10:15:48;;;;;;;3.63;0.45;;;22.80;99.90;;;;;;2622097;46;20034;31
2022/09/01 10:18:26;;;;;;;1.20;0.35;;;22.70;99.90;;;;;;2604023;54;20038;31
2022/09/01 10:21:03;;;;;;;2.20;0.30;;;22.80;99.90;;;;;;2603826;54;20038;31
2022/09/01 10:23:40;;;;;;;6.85;0.80;;;22.90;99.90;;;;;;2603522;54;20038;31
2022/09/01 10:26:17;;;;;;;2.33;0.43;;;23.10;99.90;;;;;;2622043;46;20913;31
2022/09/01 10:28:58;;;;;;;2.22;0.45;;;23.30;99.90;;;;;;2603671;54;19938;31
2022/09/01 10:31:36;;;;;;;2.42;0.30;;;23.50;99.90;;;;;;2603795;54;20109;31
2022/09/01 10:34:15;;;;;;;1.55;0.30;;;23.60;99.90;;;;;;2603715;54;20046;31
2022/09/01 10:36:56;;;;;;;0.60;0.20;;;23.70;99.90;;;;;;2603749;54;20957;31
2022/09/01 10:39:32;;;;;;;0.73;0.40;;;23.50;99.20;;;;;;2603656;54;20906;31
2022/09/01 10:42:20;;;;;;;1.40;0.38;;;23.40;98.90;;;;;;2603572;54;20144;31
2022/09/01 10:45:00;;;;;;;2.75;0.60;;;23.10;99.90;;;;;;2603692;54;20022;31
2022/09/01 10:47:39;;;;;;;5.68;0.50;;;22.80;99.90;;;;;;2603734;54;25056;31
2022/09/01 10:50:26;;;;;;;1.45;0.30;;;22.60;99.90;;;;;;2603763;54;20874;31
2022/09/01 10:53:08;;;;;;;0.98;0.30;;;22.40;99.90;;;;;;2603588;54;20026;31
2022/09/01 10:55:48;;;;;;;3.75;0.40;;;22.20;99.90;;;;;;2720808;39;20449;31
2022/09/01 10:58:51;;;;;;;1.25;0.40;;;22.20;99.90;;;;;;2603685;54;20770;31
2022/09/01 11:02:22;;;;;;;1.83;0.40;;;22.40;99.90;;;;;;2621979;46;20141;31
2022/09/01 11:05:21;;;;;;;0.88;0.30;;;22.50;98.80;;;;;;2603337;54;20073;31
2022/09/01 11:07:56;;;;;;;1.13;0.47;;;22.60;97.30;;;;;;2603673;54;20022;31
2022/09/01 11:10:46;;;;;;;0.33;0.13;;;22.70;98.70;;;;;;2603793;54;20042;31
2022/09/01 11:13:38;;;;;;;2.35;0.40;;;22.80;98.60;;;;;;2603716;54;20129;31
2022/09/01 11:16:37;;;;;;;13.40;0.90;;;22.70;97.70;;;;;;2622438;46;20164;31
2022/09/01 11:19:57;;;;;;;2.70;0.50;;;22.80;97.70;;;;;;2622013;46;20057;31
2022/09/01 11:22:32;;;;;;;1.40;0.30;;;22.90;96.60;;;;;;2704289;39;20389;31
2022/09/01 11:25:38;;;;;;;33.75;2.90;;;22.80;97.20;;;;;;2603725;54;20910;31
2022/09/01 11:28:13;;;;;;;1.90;0.40;;;22.90;96.30;;;;;;2621965;46;20127;31
2022/09/01 11:30:54;;;;;;;0.57;0.15;;;23.00;97.10;;;;;;2603460;54;20834;31
2022/09/01 11:34:11;;;;;;;0.80;0.30;;;22.90;96.80;;;;;;2603439;54;20695;31
2022/09/01 11:36:51;;;;;;;1.55;0.40;;;22.90;96.00;;;;;;2603221;54;20113;31
2022/09/01 11:39:41;;;;;;;0.82;0.20;;;22.90;96.60;;;;;;2603763;54;20853;31
2022/09/01 11:42:22;;;;;;;0.77;0.30;;;23.00;96.60;;;;;;2603371;54;20880;31
2022/09/01 11:44:59;;;;;;;1.38;0.20;;;23.00;98.00;;;;;;2603708;54;20027;31
2022/09/01 11:47:36;;;;;;;2.97;0.60;;;23.10;97.40;;;;;;2622133;46;19935;31
2022/09/01 11:50:18;;;;;;;3.50;0.60;;;23.10;96.40;;;;;;2603576;54;20105;31
2022/09/01 11:52:57;;;;;;;1.10;0.28;;;23.20;96.40;;;;;;2603311;54;20865;31
2022/09/01 11:55:39;;;;;;;0.45;0.20;;;23.10;95.80;;;;;;2603444;54;20764;31
2022/09/01 11:58:33;;;;;;;9.70;0.82;;;23.20;96.00;;;;;;2603410;54;20027;31
2022/09/01 12:01:18;;;;;;;0.90;0.15;;;23.20;96.50;;;;;;2622252;46;20805;31
2022/09/01 12:03:53;;;;;;;2.80;1.35;;;23.20;95.80;;;;;;2603539;54;20054;31
2022/09/01 12:06:30;;;;;;;0.73;0.20;;;23.20;96.10;;;;;;2603328;54;20081;31
2022/09/01 12:09:05;;;;;;;0.65;0.20;;;23.20;95.80;;;;;;2720740;39;20992;31
2022/09/01 12:11:42;;;;;;;1.65;0.30;;;23.20;96.00;;;;;;2603274;54;20549;31
2022/09/01 12:14:24;;;;;;;1.35;0.40;;;23.30;96.30;;;;;;2603261;54;20022;31
2022/09/01 12:17:02;;;;;;;2.47;0.45;;;23.30;95.60;;;;;;2603261;54;20027;31
2022/09/01 12:19:38;;;;;;;2.85;0.20;;;23.40;95.40;;;;;;2603348;54;20875;31
2022/09/01 12:22:16;;;;;;;0.93;0.20;;;23.30;97.20;;;;;;2603438;54;20037;31
2022/09/01 12:24:50;;;;;;;3.63;0.40;;;23.00;97.10;;;;;;2603386;54;20870;31
2022/09/01 12:27:27;;;;;;;1.90;0.40;;;22.80;97.50;;;;;;2622028;46;20242;31
2022/09/01 12:30:05;;;;;;;1.02;0.28;;;22.50;98.00;;;;;;2621911;46;20891;31
2022/09/01 12:32:42;;;;;;;0.90;0.20;;;22.40;98.30;;;;;;2621541;46;20089;31
2022/09/01 12:35:18;;;;;;;5.38;0.50;;;22.40;98.60;;;;;;2603340;54;20759;31
2022/09/01 12:37:53;;;;;;;0.20;0.10;;;22.40;98.50;;;;;;2621638;46;20034;31
2022/09/01 12:40:35;;;;;;;4.03;0.50;;;22.40;98.10;;;;;;2603540;54;20073;31
2022/09/01 12:43:11;;;;;;;2.85;0.45;;;22.50;97.90;;;;;;2603281;54;20101;31
2022/09/01 12:45:49;;;;;;;1.35;0.40;;;22.60;98.10;;;;;;2621860;46;20042;31
2022/09/01 12:48:28;;;;;;;2.08;0.30;;;22.60;97.70;;;;;;2603462;54;20810;31
2022/09/01 12:51:04;;;;;;;0.75;0.32;;;22.50;97.70;;;;;;2621403;46;20872;31
2022/09/01 12:53:39;;;;;;;1.05;0.30;;;22.30;97.20;;;;;;2603459;54;20026;31
2022/09/01 12:56:24;;;;;;;1.58;0.20;;;22.20;97.50;;;;;;2603403;54;20897;31
2022/09/01 12:59:08;;;;;;;1.08;0.40;;;22.20;97.50;;;;;;2603334;54;20026;31
2022/09/01 13:01:52;;;;;;;2.58;0.50;;;22.20;98.00;;;;;;2621547;46;20002;31
2022/09/01 13:04:32;;;;;;;2.08;0.20;;;22.20;97.60;;;;;;2603415;54;20030;31
2022/09/01 13:07:10;;;;;;;0.90;0.30;;;22.10;97.10;;;;;;2603219;54;20057;31
2022/09/01 13:09:45;;;;;;;0.93;0.30;;;22.10;97.20;;;;;;2602639;54;20553;31
2022/09/01 13:12:22;;;;;;;1.85;0.55;;;22.10;97.80;;;;;;2603156;54;20027;31
2022/09/01 13:14:57;;;;;;;1.45;0.22;;;22.10;97.50;;;;;;2603288;54;20101;31
2022/09/01 13:17:38;;;;;;;1.05;0.20;;;22.10;96.70;;;;;;2701520;39;20481;31
2022/09/01 13:20:16;;;;;;;2.10;0.40;;;22.10;97.30;;;;;;2603365;54;20917;31
2022/09/01 13:22:50;;;;;;;1.25;0.30;;;22.10;97.20;;;;;;2603205;54;20027;31
2022/09/01 13:25:23;;;;;;;1.20;0.20;;;22.20;97.50;;;;;;2603021;54;20856;31
2022/09/01 13:28:01;;;;;;;1.20;0.30;;;22.20;97.40;;;;;;2621579;46;20145;31
2022/09/01 13:30:37;;;;;;;1.83;0.20;;;22.20;97.30;;;;;;2603444;54;20034;31
2022/09/01 13:33:13;;;;;;;1.38;0.40;;;22.20;97.60;;;;;;2603319;54;20031;31
2022/09/01 13:35:56;;;;;;;2.13;0.37;;;22.30;96.80;;;;;;2602914;54;20481;31
2022/09/01 13:38:36;;;;;;;1.38;0.30;;;22.30;96.70;;;;;;2621313;46;21062;31
2022/09/01 13:41:12;;;;;;;6.30;0.60;;;22.30;96.90;;;;;;2603071;54;20050;31
2022/09/01 13:43:49;;;;;;;23.75;2.10;;;22.20;97.30;;;;;;2603879;54;19957;31
2022/09/01 13:46:25;;;;;;;1.02;0.30;;;22.10;96.90;;;;;;2604861;54;20250;31
2022/09/01 13:48:59;;;;;;;1.58;0.30;;;21.90;97.10;;;;;;2605126;54;20825;31
2022/09/01 13:51:39;;;;;;;0.85;0.50;;;21.80;96.90;;;;;;2775016;31;20556;31
2022/09/01 13:54:14;;;;;;;4.33;0.63;;;21.60;97.00;;;;;;2604987;54;20027;31
2022/09/01 13:56:50;;;;;;;1.23;0.30;;;21.50;97.30;;;;;;2604714;54;20084;31
2022/09/01 13:59:25;;;;;;;1.65;0.52;;;21.30;96.90;;;;;;2604646;54;20775;31
2022/09/01 14:02:01;;;;;;;5.85;0.40;;;21.30;97.50;;;;;;2604753;54;20887;31
2022/09/01 14:04:41;;;;;;;3.80;0.50;;;21.20;97.30;;;;;;2623226;46;20030;31
2022/09/01 14:07:19;;;;;;;0.97;0.33;;;21.10;97.90;;;;;;2623383;46;20036;31
2022/09/01 14:09:55;;;;;;;3.17;0.30;;;21.00;98.50;;;;;;2623139;46;19985;31
2022/09/01 14:12:31;;;;;;;2.45;0.40;;;21.10;98.60;;;;;;2604907;54;20880;31